sensor_id;sensor_type;location;lat;lon;timestamp;temperature;humidity
7902;DHT22;3996;49.674;10.716;2024-02-28T00:02:19;6.50;37.00
7902;DHT22;3996;49.674;10.716;2024-02-28T00:04:44;6.40;37.10
7902;DHT22;3996;49.674;10.716;2024-02-28T00:07:10;6.40;37.30
7902;DHT22;3996;49.674;10.716;2024-02-28T00:09:35;6.40;37.40
7902;DHT22;3996;49.674;10.716;2024-02-28T00:12:01;6.30;37.60
7902;DHT22;3996;49.674;10.716;2024-02-28T00:14:27;6.30;37.60
7902;DHT22;3996;49.674;10.716;2024-02-28T00:16:52;6.30;38.10
7902;DHT22;3996;49.674;10.716;2024-02-28T00:19:18;6.30;38.00
7902;DHT22;3996;49.674;10.716;2024-02-28T00:21:45;6.30;37.70
7902;DHT22;3996;49.674;10.716;2024-02-28T00:24:11;6.30;37.40
7902;DHT22;3996;49.674;10.716;2024-02-28T00:26:41;6.40;37.20
7902;DHT22;3996;49.674;10.716;2024-02-28T00:29:06;6.40;37.40
7902;DHT22;3996;49.674;10.716;2024-02-28T00:31:32;6.40;37.80
7902;DHT22;3996;49.674;10.716;2024-02-28T00:33:57;6.40;37.40
7902;DHT22;3996;49.674;10.716;2024-02-28T00:36:23;6.30;38.30
7902;DHT22;3996;49.674;10.716;2024-02-28T00:38:49;6.40;37.40
7902;DHT22;3996;49.674;10.716;2024-02-28T00:41:14;6.40;37.50
7902;DHT22;3996;49.674;10.716;2024-02-28T00:43:40;6.40;37.10
7902;DHT22;3996;49.674;10.716;2024-02-28T00:46:05;6.40;36.50
7902;DHT22;3996;49.674;10.716;2024-02-28T00:48:36;6.40;36.60
7902;DHT22;3996;49.674;10.716;2024-02-28T00:51:02;6.30;37.50
7902;DHT22;3996;49.674;10.716;2024-02-28T00:53:28;6.40;37.50
7902;DHT22;3996;49.674;10.716;2024-02-28T00:55:54;6.40;37.50
7902;DHT22;3996;49.674;10.716;2024-02-28T00:58:20;6.40;37.10
7902;DHT22;3996;49.674;10.716;2024-02-28T01:00:49;6.30;37.40
7902;DHT22;3996;49.674;10.716;2024-02-28T01:03:15;6.30;37.90
7902;DHT22;3996;49.674;10.716;2024-02-28T01:05:41;6.30;38.00
7902;DHT22;3996;49.674;10.716;2024-02-28T01:08:07;6.30;37.60
7902;DHT22;3996;49.674;10.716;2024-02-28T01:10:33;6.30;38.00
7902;DHT22;3996;49.674;10.716;2024-02-28T01:12:59;6.30;37.50
7902;DHT22;3996;49.674;10.716;2024-02-28T01:15:25;6.30;37.40
7902;DHT22;3996;49.674;10.716;2024-02-28T01:17:50;6.30;37.20
7902;DHT22;3996;49.674;10.716;2024-02-28T01:20:16;6.30;37.20
7902;DHT22;3996;49.674;10.716;2024-02-28T01:22:42;6.30;37.00
7902;DHT22;3996;49.674;10.716;2024-02-28T01:25:08;6.30;37.00
7902;DHT22;3996;49.674;10.716;2024-02-28T01:27:33;6.30;37.10
7902;DHT22;3996;49.674;10.716;2024-02-28T01:30:00;6.30;37.20
7902;DHT22;3996;49.674;10.716;2024-02-28T01:32:26;6.30;37.50
7902;DHT22;3996;49.674;10.716;2024-02-28T01:34:51;6.30;37.60
7902;DHT22;3996;49.674;10.716;2024-02-28T01:37:17;6.40;37.10
7902;DHT22;3996;49.674;10.716;2024-02-28T01:39:42;6.40;36.50
7902;DHT22;3996;49.674;10.716;2024-02-28T01:42:09;6.30;37.30
7902;DHT22;3996;49.674;10.716;2024-02-28T01:44:46;6.20;37.40
7902;DHT22;3996;49.674;10.716;2024-02-28T01:47:12;6.10;39.10
7902;DHT22;3996;49.674;10.716;2024-02-28T01:49:39;6.20;37.80
7902;DHT22;3996;49.674;10.716;2024-02-28T01:52:06;6.30;37.40
7902;DHT22;3996;49.674;10.716;2024-02-28T01:54:32;6.40;36.80
7902;DHT22;3996;49.674;10.716;2024-02-28T01:57:00;6.30;37.30
7902;DHT22;3996;49.674;10.716;2024-02-28T01:59:26;6.30;36.90
7902;DHT22;3996;49.674;10.716;2024-02-28T02:01:53;6.30;36.80
7902;DHT22;3996;49.674;10.716;2024-02-28T02:04:19;6.30;37.00
7902;DHT22;3996;49.674;10.716;2024-02-28T02:06:45;6.30;37.10
7902;DHT22;3996;49.674;10.716;2024-02-28T02:09:12;6.20;37.60
7902;DHT22;3996;49.674;10.716;2024-02-28T02:11:38;6.20;37.60
7902;DHT22;3996;49.674;10.716;2024-02-28T02:14:05;6.20;37.40
7902;DHT22;3996;49.674;10.716;2024-02-28T02:16:30;6.20;37.50
7902;DHT22;3996;49.674;10.716;2024-02-28T02:18:56;6.20;37.40
7902;DHT22;3996;49.674;10.716;2024-02-28T02:21:30;6.10;38.10
7902;DHT22;3996;49.674;10.716;2024-02-28T02:23:56;6.10;38.10
7902;DHT22;3996;49.674;10.716;2024-02-28T02:26:22;6.10;38.20
7902;DHT22;3996;49.674;10.716;2024-02-28T02:28:48;6.10;38.90
7902;DHT22;3996;49.674;10.716;2024-02-28T02:31:14;6.10;39.00
7902;DHT22;3996;49.674;10.716;2024-02-28T02:33:40;6.20;38.30
7902;DHT22;3996;49.674;10.716;2024-02-28T02:36:05;6.20;38.30
7902;DHT22;3996;49.674;10.716;2024-02-28T02:38:31;6.20;38.20
7902;DHT22;3996;49.674;10.716;2024-02-28T02:40:56;6.20;38.20
7902;DHT22;3996;49.674;10.716;2024-02-28T02:43:22;6.20;38.80
7902;DHT22;3996;49.674;10.716;2024-02-28T02:45:48;6.20;38.20
7902;DHT22;3996;49.674;10.716;2024-02-28T02:48:13;6.20;38.40
7902;DHT22;3996;49.674;10.716;2024-02-28T02:50:39;6.20;38.20
7902;DHT22;3996;49.674;10.716;2024-02-28T02:53:06;6.20;38.60
7902;DHT22;3996;49.674;10.716;2024-02-28T02:55:32;6.20;39.00
7902;DHT22;3996;49.674;10.716;2024-02-28T02:57:58;6.30;38.40
7902;DHT22;3996;49.674;10.716;2024-02-28T03:00:23;6.30;38.30
7902;DHT22;3996;49.674;10.716;2024-02-28T03:02:49;6.30;38.30
7902;DHT22;3996;49.674;10.716;2024-02-28T03:05:14;6.30;38.30
7902;DHT22;3996;49.674;10.716;2024-02-28T03:07:40;6.20;38.20
7902;DHT22;3996;49.674;10.716;2024-02-28T03:10:06;6.20;38.50
7902;DHT22;3996;49.674;10.716;2024-02-28T03:12:32;6.20;38.40
7902;DHT22;3996;49.674;10.716;2024-02-28T03:14:57;6.30;38.30
7902;DHT22;3996;49.674;10.716;2024-02-28T03:17:23;6.30;38.30
7902;DHT22;3996;49.674;10.716;2024-02-28T03:19:49;6.20;38.80
7902;DHT22;3996;49.674;10.716;2024-02-28T03:22:14;6.20;38.30
7902;DHT22;3996;49.674;10.716;2024-02-28T03:24:40;6.30;38.70
7902;DHT22;3996;49.674;10.716;2024-02-28T03:27:06;6.30;38.70
7902;DHT22;3996;49.674;10.716;2024-02-28T03:29:32;6.30;38.30
7902;DHT22;3996;49.674;10.716;2024-02-28T03:31:58;6.30;38.70
7902;DHT22;3996;49.674;10.716;2024-02-28T03:34:24;6.30;39.00
7902;DHT22;3996;49.674;10.716;2024-02-28T03:36:50;6.20;38.60
7902;DHT22;3996;49.674;10.716;2024-02-28T03:39:15;6.20;38.80
7902;DHT22;3996;49.674;10.716;2024-02-28T03:41:41;6.30;38.70
7902;DHT22;3996;49.674;10.716;2024-02-28T03:44:06;6.20;39.10
7902;DHT22;3996;49.674;10.716;2024-02-28T03:46:32;6.20;38.90
7902;DHT22;3996;49.674;10.716;2024-02-28T03:48:58;6.20;38.90
7902;DHT22;3996;49.674;10.716;2024-02-28T03:51:24;6.20;39.20
7902;DHT22;3996;49.674;10.716;2024-02-28T03:53:49;6.20;39.80
7902;DHT22;3996;49.674;10.716;2024-02-28T03:56:27;6.20;39.00
7902;DHT22;3996;49.674;10.716;2024-02-28T03:58:54;6.20;39.30
7902;DHT22;3996;49.674;10.716;2024-02-28T04:01:19;6.10;39.60
7902;DHT22;3996;49.674;10.716;2024-02-28T04:03:45;6.10;39.60
7902;DHT22;3996;49.674;10.716;2024-02-28T04:06:11;6.20;39.10
7902;DHT22;3996;49.674;10.716;2024-02-28T04:08:37;6.10;39.50
7902;DHT22;3996;49.674;10.716;2024-02-28T04:11:03;6.20;39.60
7902;DHT22;3996;49.674;10.716;2024-02-28T04:13:28;6.20;39.20
7902;DHT22;3996;49.674;10.716;2024-02-28T04:15:54;6.30;39.10
7902;DHT22;3996;49.674;10.716;2024-02-28T04:18:20;6.20;38.90
7902;DHT22;3996;49.674;10.716;2024-02-28T04:20:45;6.20;38.80
7902;DHT22;3996;49.674;10.716;2024-02-28T04:23:11;6.30;39.00
7902;DHT22;3996;49.674;10.716;2024-02-28T04:25:36;6.20;39.10
7902;DHT22;3996;49.674;10.716;2024-02-28T04:28:06;6.20;39.10
7902;DHT22;3996;49.674;10.716;2024-02-28T04:30:31;6.20;39.30
7902;DHT22;3996;49.674;10.716;2024-02-28T04:32:57;6.20;39.40
7902;DHT22;3996;49.674;10.716;2024-02-28T04:35:22;6.20;39.60
7902;DHT22;3996;49.674;10.716;2024-02-28T04:37:48;6.10;40.20
7902;DHT22;3996;49.674;10.716;2024-02-28T04:40:14;6.10;40.20
7902;DHT22;3996;49.674;10.716;2024-02-28T04:42:41;6.10;39.90
7902;DHT22;3996;49.674;10.716;2024-02-28T04:45:08;6.10;40.00
7902;DHT22;3996;49.674;10.716;2024-02-28T04:47:34;6.20;39.60
7902;DHT22;3996;49.674;10.716;2024-02-28T04:50:00;6.10;39.80
7902;DHT22;3996;49.674;10.716;2024-02-28T04:52:25;6.10;39.70
7902;DHT22;3996;49.674;10.716;2024-02-28T04:54:52;6.10;40.20
7902;DHT22;3996;49.674;10.716;2024-02-28T04:57:18;6.10;40.50
7902;DHT22;3996;49.674;10.716;2024-02-28T04:59:44;6.10;40.30
7902;DHT22;3996;49.674;10.716;2024-02-28T05:02:10;6.20;39.70
7902;DHT22;3996;49.674;10.716;2024-02-28T05:04:36;6.20;39.50
7902;DHT22;3996;49.674;10.716;2024-02-28T05:07:01;6.20;39.20
7902;DHT22;3996;49.674;10.716;2024-02-28T05:09:28;6.10;39.60
7902;DHT22;3996;49.674;10.716;2024-02-28T05:11:53;6.10;39.90
7902;DHT22;3996;49.674;10.716;2024-02-28T05:14:19;6.10;40.30
7902;DHT22;3996;49.674;10.716;2024-02-28T05:16:46;6.10;40.10
7902;DHT22;3996;49.674;10.716;2024-02-28T05:19:12;6.10;40.10
7902;DHT22;3996;49.674;10.716;2024-02-28T05:21:42;6.10;40.40
7902;DHT22;3996;49.674;10.716;2024-02-28T05:24:08;6.10;40.10
7902;DHT22;3996;49.674;10.716;2024-02-28T05:26:34;6.10;40.10
7902;DHT22;3996;49.674;10.716;2024-02-28T05:29:00;6.20;39.50
7902;DHT22;3996;49.674;10.716;2024-02-28T05:31:26;6.10;39.60
7902;DHT22;3996;49.674;10.716;2024-02-28T05:33:53;6.10;39.80
7902;DHT22;3996;49.674;10.716;2024-02-28T05:36:26;6.10;40.00
7902;DHT22;3996;49.674;10.716;2024-02-28T05:38:52;6.10;39.70
7902;DHT22;3996;49.674;10.716;2024-02-28T05:41:18;6.10;39.70
7902;DHT22;3996;49.674;10.716;2024-02-28T05:43:44;6.10;39.50
7902;DHT22;3996;49.674;10.716;2024-02-28T05:46:11;6.10;39.20
7902;DHT22;3996;49.674;10.716;2024-02-28T05:48:37;6.10;39.20
7902;DHT22;3996;49.674;10.716;2024-02-28T05:51:02;6.00;39.50
7902;DHT22;3996;49.674;10.716;2024-02-28T05:53:29;6.00;39.60
7902;DHT22;3996;49.674;10.716;2024-02-28T05:55:57;6.00;39.50
7902;DHT22;3996;49.674;10.716;2024-02-28T05:58:23;6.00;40.50
7902;DHT22;3996;49.674;10.716;2024-02-28T06:00:50;6.10;39.50
7902;DHT22;3996;49.674;10.716;2024-02-28T06:03:16;6.00;38.60
7902;DHT22;3996;49.674;10.716;2024-02-28T06:05:42;6.00;38.80
7902;DHT22;3996;49.674;10.716;2024-02-28T06:08:07;6.10;38.70
7902;DHT22;3996;49.674;10.716;2024-02-28T06:10:33;6.10;39.00
7902;DHT22;3996;49.674;10.716;2024-02-28T06:12:58;6.10;39.60
7902;DHT22;3996;49.674;10.716;2024-02-28T06:15:24;6.20;39.30
7902;DHT22;3996;49.674;10.716;2024-02-28T06:17:49;6.10;39.50
7902;DHT22;3996;49.674;10.716;2024-02-28T06:20:15;6.10;39.40
7902;DHT22;3996;49.674;10.716;2024-02-28T06:22:41;6.10;39.60
7902;DHT22;3996;49.674;10.716;2024-02-28T06:25:07;6.00;39.70
7902;DHT22;3996;49.674;10.716;2024-02-28T06:27:39;6.00;41.30
7902;DHT22;3996;49.674;10.716;2024-02-28T06:30:06;6.10;40.30
7902;DHT22;3996;49.674;10.716;2024-02-28T06:32:32;6.10;40.30
7902;DHT22;3996;49.674;10.716;2024-02-28T06:34:58;6.20;40.00
7902;DHT22;3996;49.674;10.716;2024-02-28T06:37:23;6.30;40.20
7902;DHT22;3996;49.674;10.716;2024-02-28T06:39:49;6.20;40.10
7902;DHT22;3996;49.674;10.716;2024-02-28T06:42:14;6.30;40.00
7902;DHT22;3996;49.674;10.716;2024-02-28T06:44:40;6.30;40.70
7902;DHT22;3996;49.674;10.716;2024-02-28T06:47:07;6.10;40.10
7902;DHT22;3996;49.674;10.716;2024-02-28T06:49:33;6.20;40.30
7902;DHT22;3996;49.674;10.716;2024-02-28T06:51:58;6.10;40.50
7902;DHT22;3996;49.674;10.716;2024-02-28T06:54:27;6.20;40.50
7902;DHT22;3996;49.674;10.716;2024-02-28T06:56:52;6.20;40.20
7902;DHT22;3996;49.674;10.716;2024-02-28T06:59:18;6.20;39.90
7902;DHT22;3996;49.674;10.716;2024-02-28T07:01:43;6.20;40.40
7902;DHT22;3996;49.674;10.716;2024-02-28T07:04:09;6.20;40.00
7902;DHT22;3996;49.674;10.716;2024-02-28T07:06:35;6.30;40.10
7902;DHT22;3996;49.674;10.716;2024-02-28T07:09:00;6.30;40.10
7902;DHT22;3996;49.674;10.716;2024-02-28T07:11:26;6.30;39.60
7902;DHT22;3996;49.674;10.716;2024-02-28T07:13:51;6.30;39.80
7902;DHT22;3996;49.674;10.716;2024-02-28T07:16:17;6.30;40.20
7902;DHT22;3996;49.674;10.716;2024-02-28T07:18:42;6.30;40.20
7902;DHT22;3996;49.674;10.716;2024-02-28T07:21:08;6.30;39.90
7902;DHT22;3996;49.674;10.716;2024-02-28T07:23:33;6.40;40.40
7902;DHT22;3996;49.674;10.716;2024-02-28T07:25:59;6.40;40.00
7902;DHT22;3996;49.674;10.716;2024-02-28T07:28:25;6.40;40.00
7902;DHT22;3996;49.674;10.716;2024-02-28T07:30:50;6.40;39.70
7902;DHT22;3996;49.674;10.716;2024-02-28T07:33:16;6.40;39.70
7902;DHT22;3996;49.674;10.716;2024-02-28T07:35:45;6.40;39.00
7902;DHT22;3996;49.674;10.716;2024-02-28T07:38:11;6.50;39.00
7902;DHT22;3996;49.674;10.716;2024-02-28T07:40:36;6.40;38.40
7902;DHT22;3996;49.674;10.716;2024-02-28T07:43:02;6.40;39.80
7902;DHT22;3996;49.674;10.716;2024-02-28T07:45:28;6.50;39.50
7902;DHT22;3996;49.674;10.716;2024-02-28T07:47:53;6.50;39.70
7902;DHT22;3996;49.674;10.716;2024-02-28T07:50:19;6.50;39.00
7902;DHT22;3996;49.674;10.716;2024-02-28T07:52:44;6.50;38.00
7902;DHT22;3996;49.674;10.716;2024-02-28T07:55:10;6.60;38.60
7902;DHT22;3996;49.674;10.716;2024-02-28T07:57:36;6.60;38.10
7902;DHT22;3996;49.674;10.716;2024-02-28T08:00:02;6.60;38.50
7902;DHT22;3996;49.674;10.716;2024-02-28T08:02:28;6.50;37.60
7902;DHT22;3996;49.674;10.716;2024-02-28T08:04:53;6.50;37.50
7902;DHT22;3996;49.674;10.716;2024-02-28T08:07:19;6.60;38.50
7902;DHT22;3996;49.674;10.716;2024-02-28T08:09:45;6.60;37.80
7902;DHT22;3996;49.674;10.716;2024-02-28T08:12:10;6.60;38.10
7902;DHT22;3996;49.674;10.716;2024-02-28T08:14:36;6.60;38.20
7902;DHT22;3996;49.674;10.716;2024-02-28T08:17:01;6.60;37.80
7902;DHT22;3996;49.674;10.716;2024-02-28T08:19:27;6.50;38.10
7902;DHT22;3996;49.674;10.716;2024-02-28T08:21:52;6.60;38.50
7902;DHT22;3996;49.674;10.716;2024-02-28T08:24:18;6.70;37.80
7902;DHT22;3996;49.674;10.716;2024-02-28T08:26:43;6.70;38.00
7902;DHT22;3996;49.674;10.716;2024-02-28T08:29:09;6.70;37.40
7902;DHT22;3996;49.674;10.716;2024-02-28T08:31:40;6.70;37.30
7902;DHT22;3996;49.674;10.716;2024-02-28T08:34:06;6.70;37.80
7902;DHT22;3996;49.674;10.716;2024-02-28T08:36:32;6.70;37.30
7902;DHT22;3996;49.674;10.716;2024-02-28T08:38:57;6.70;37.70
7902;DHT22;3996;49.674;10.716;2024-02-28T08:41:23;6.70;37.30
7902;DHT22;3996;49.674;10.716;2024-02-28T08:43:48;6.80;36.80
7902;DHT22;3996;49.674;10.716;2024-02-28T08:46:14;6.80;36.80
7902;DHT22;3996;49.674;10.716;2024-02-28T08:48:41;6.80;36.60
7902;DHT22;3996;49.674;10.716;2024-02-28T08:51:07;6.80;37.70
7902;DHT22;3996;49.674;10.716;2024-02-28T08:53:32;6.90;37.70
7902;DHT22;3996;49.674;10.716;2024-02-28T08:55:58;6.90;36.80
7902;DHT22;3996;49.674;10.716;2024-02-28T08:58:24;6.90;36.80
7902;DHT22;3996;49.674;10.716;2024-02-28T09:00:50;7.00;36.90
7902;DHT22;3996;49.674;10.716;2024-02-28T09:03:16;7.00;36.70
7902;DHT22;3996;49.674;10.716;2024-02-28T09:05:42;6.90;36.30
7902;DHT22;3996;49.674;10.716;2024-02-28T09:08:07;6.90;35.70
7902;DHT22;3996;49.674;10.716;2024-02-28T09:10:33;7.00;36.10
7902;DHT22;3996;49.674;10.716;2024-02-28T09:13:00;7.10;36.20
7902;DHT22;3996;49.674;10.716;2024-02-28T09:15:25;7.20;35.70
7902;DHT22;3996;49.674;10.716;2024-02-28T09:17:51;7.20;34.90
7902;DHT22;3996;49.674;10.716;2024-02-28T09:20:17;7.20;34.60
7902;DHT22;3996;49.674;10.716;2024-02-28T09:22:43;7.10;34.90
7902;DHT22;3996;49.674;10.716;2024-02-28T09:25:09;7.20;34.00
7902;DHT22;3996;49.674;10.716;2024-02-28T09:27:35;7.30;33.80
7902;DHT22;3996;49.674;10.716;2024-02-28T09:30:02;7.20;34.00
7902;DHT22;3996;49.674;10.716;2024-02-28T09:32:28;7.30;33.40
7902;DHT22;3996;49.674;10.716;2024-02-28T09:34:53;7.30;33.60
7902;DHT22;3996;49.674;10.716;2024-02-28T09:37:19;7.40;33.80
7902;DHT22;3996;49.674;10.716;2024-02-28T09:39:46;7.40;32.70
7902;DHT22;3996;49.674;10.716;2024-02-28T09:42:12;7.40;32.00
7902;DHT22;3996;49.674;10.716;2024-02-28T09:44:40;7.40;32.00
7902;DHT22;3996;49.674;10.716;2024-02-28T09:47:06;7.50;32.70
7902;DHT22;3996;49.674;10.716;2024-02-28T09:49:32;7.50;32.50
7902;DHT22;3996;49.674;10.716;2024-02-28T09:51:59;7.50;33.30
7902;DHT22;3996;49.674;10.716;2024-02-28T09:54:25;7.50;31.40
7902;DHT22;3996;49.674;10.716;2024-02-28T09:56:51;7.50;32.20
7902;DHT22;3996;49.674;10.716;2024-02-28T09:59:18;7.60;33.30
7902;DHT22;3996;49.674;10.716;2024-02-28T10:01:47;7.60;32.20
7902;DHT22;3996;49.674;10.716;2024-02-28T10:04:16;7.50;32.60
7902;DHT22;3996;49.674;10.716;2024-02-28T10:06:42;7.50;32.20
7902;DHT22;3996;49.674;10.716;2024-02-28T10:09:08;7.50;31.70
7902;DHT22;3996;49.674;10.716;2024-02-28T10:11:35;7.50;32.00
7902;DHT22;3996;49.674;10.716;2024-02-28T10:14:01;7.50;32.30
7902;DHT22;3996;49.674;10.716;2024-02-28T10:16:27;7.60;32.70
7902;DHT22;3996;49.674;10.716;2024-02-28T10:18:53;7.60;31.80
7902;DHT22;3996;49.674;10.716;2024-02-28T10:21:19;7.40;31.80
7902;DHT22;3996;49.674;10.716;2024-02-28T10:23:45;7.50;32.10
7902;DHT22;3996;49.674;10.716;2024-02-28T10:26:11;7.50;31.70
7902;DHT22;3996;49.674;10.716;2024-02-28T10:28:38;7.60;31.20
7902;DHT22;3996;49.674;10.716;2024-02-28T10:31:05;7.70;31.50
7902;DHT22;3996;49.674;10.716;2024-02-28T10:33:32;7.60;32.20
7902;DHT22;3996;49.674;10.716;2024-02-28T10:35:59;7.60;31.40
7902;DHT22;3996;49.674;10.716;2024-02-28T10:38:26;7.60;31.00
7902;DHT22;3996;49.674;10.716;2024-02-28T10:40:53;7.70;30.80
7902;DHT22;3996;49.674;10.716;2024-02-28T10:43:19;7.60;31.40
7902;DHT22;3996;49.674;10.716;2024-02-28T10:45:46;7.70;31.70
7902;DHT22;3996;49.674;10.716;2024-02-28T10:48:14;8.00;32.10
7902;DHT22;3996;49.674;10.716;2024-02-28T10:50:40;8.10;29.90
7902;DHT22;3996;49.674;10.716;2024-02-28T10:53:13;8.20;29.60
7902;DHT22;3996;49.674;10.716;2024-02-28T10:55:40;8.20;29.40
7902;DHT22;3996;49.674;10.716;2024-02-28T10:58:10;8.20;30.10
7902;DHT22;3996;49.674;10.716;2024-02-28T11:00:40;8.20;29.20
7902;DHT22;3996;49.674;10.716;2024-02-28T11:03:13;8.20;30.00
7902;DHT22;3996;49.674;10.716;2024-02-28T11:05:42;8.30;29.40
7902;DHT22;3996;49.674;10.716;2024-02-28T11:08:09;8.30;28.40
7902;DHT22;3996;49.674;10.716;2024-02-28T11:10:39;8.50;29.00
7902;DHT22;3996;49.674;10.716;2024-02-28T11:13:05;8.60;28.50
7902;DHT22;3996;49.674;10.716;2024-02-28T11:15:31;8.70;28.70
7902;DHT22;3996;49.674;10.716;2024-02-28T11:18:07;8.70;27.60
7902;DHT22;3996;49.674;10.716;2024-02-28T11:20:34;8.90;27.40
7902;DHT22;3996;49.674;10.716;2024-02-28T11:23:00;9.00;27.30
7902;DHT22;3996;49.674;10.716;2024-02-28T11:25:26;9.10;25.40
7902;DHT22;3996;49.674;10.716;2024-02-28T11:27:51;9.00;25.90
7902;DHT22;3996;49.674;10.716;2024-02-28T11:30:17;9.00;25.70
7902;DHT22;3996;49.674;10.716;2024-02-28T11:32:43;9.20;25.60
7902;DHT22;3996;49.674;10.716;2024-02-28T11:35:09;9.40;25.70
7902;DHT22;3996;49.674;10.716;2024-02-28T11:37:38;9.70;24.00
7902;DHT22;3996;49.674;10.716;2024-02-28T11:40:09;9.70;22.90
7902;DHT22;3996;49.674;10.716;2024-02-28T11:42:35;9.60;23.90
7902;DHT22;3996;49.674;10.716;2024-02-28T11:45:01;9.70;22.80
7902;DHT22;3996;49.674;10.716;2024-02-28T11:47:34;9.50;23.30
7902;DHT22;3996;49.674;10.716;2024-02-28T11:50:03;9.40;23.30
7902;DHT22;3996;49.674;10.716;2024-02-28T11:52:33;9.40;23.00
7902;DHT22;3996;49.674;10.716;2024-02-28T11:54:59;9.90;23.70
7902;DHT22;3996;49.674;10.716;2024-02-28T11:57:25;10.40;21.80
7902;DHT22;3996;49.674;10.716;2024-02-28T11:59:51;10.50;20.90
7902;DHT22;3996;49.674;10.716;2024-02-28T12:02:18;10.30;19.50
7902;DHT22;3996;49.674;10.716;2024-02-28T12:04:44;9.90;20.60
7902;DHT22;3996;49.674;10.716;2024-02-28T12:07:11;10.00;20.00
7902;DHT22;3996;49.674;10.716;2024-02-28T12:09:37;10.00;19.30
7902;DHT22;3996;49.674;10.716;2024-02-28T12:12:06;10.40;19.50
7902;DHT22;3996;49.674;10.716;2024-02-28T12:14:32;10.80;19.30
7902;DHT22;3996;49.674;10.716;2024-02-28T12:16:58;11.10;17.90
7902;DHT22;3996;49.674;10.716;2024-02-28T12:19:24;10.40;18.00
7902;DHT22;3996;49.674;10.716;2024-02-28T12:21:50;9.90;19.80
7902;DHT22;3996;49.674;10.716;2024-02-28T12:24:15;9.90;20.80
7902;DHT22;3996;49.674;10.716;2024-02-28T12:26:41;10.30;21.30
7902;DHT22;3996;49.674;10.716;2024-02-28T12:29:07;10.80;19.40
7902;DHT22;3996;49.674;10.716;2024-02-28T12:31:33;10.80;17.80
7902;DHT22;3996;49.674;10.716;2024-02-28T12:33:59;11.00;16.70
7902;DHT22;3996;49.674;10.716;2024-02-28T12:36:25;11.00;17.10
7902;DHT22;3996;49.674;10.716;2024-02-28T12:38:51;11.00;16.00
7902;DHT22;3996;49.674;10.716;2024-02-28T12:41:17;11.00;17.10
7902;DHT22;3996;49.674;10.716;2024-02-28T12:43:43;11.40;17.80
7902;DHT22;3996;49.674;10.716;2024-02-28T12:46:08;11.50;15.70
7902;DHT22;3996;49.674;10.716;2024-02-28T12:48:38;11.40;15.30
7902;DHT22;3996;49.674;10.716;2024-02-28T12:51:04;11.40;14.80
7902;DHT22;3996;49.674;10.716;2024-02-28T12:53:31;11.00;15.20
7902;DHT22;3996;49.674;10.716;2024-02-28T12:55:57;11.20;15.90
7902;DHT22;3996;49.674;10.716;2024-02-28T12:58:22;11.60;15.30
7902;DHT22;3996;49.674;10.716;2024-02-28T13:00:51;11.90;13.70
7902;DHT22;3996;49.674;10.716;2024-02-28T13:03:18;12.40;12.70
7902;DHT22;3996;49.674;10.716;2024-02-28T13:05:43;11.80;10.80
7902;DHT22;3996;49.674;10.716;2024-02-28T13:08:09;11.50;13.10
7902;DHT22;3996;49.674;10.716;2024-02-28T13:10:35;11.90;12.40
7902;DHT22;3996;49.674;10.716;2024-02-28T13:13:04;12.20;9.50
7902;DHT22;3996;49.674;10.716;2024-02-28T13:15:31;12.10;10.40
7902;DHT22;3996;49.674;10.716;2024-02-28T13:17:57;12.20;10.90
7902;DHT22;3996;49.674;10.716;2024-02-28T13:20:22;12.50;10.40
7902;DHT22;3996;49.674;10.716;2024-02-28T13:22:48;12.70;9.10
7902;DHT22;3996;49.674;10.716;2024-02-28T13:25:13;11.90;7.70
7902;DHT22;3996;49.674;10.716;2024-02-28T13:27:40;11.80;9.90
7902;DHT22;3996;49.674;10.716;2024-02-28T13:30:06;11.60;8.00
7902;DHT22;3996;49.674;10.716;2024-02-28T13:32:32;11.90;6.20
7902;DHT22;3996;49.674;10.716;2024-02-28T13:34:58;11.90;6.80
7902;DHT22;3996;49.674;10.716;2024-02-28T13:37:24;12.20;8.10
7902;DHT22;3996;49.674;10.716;2024-02-28T13:39:49;12.40;6.60
7902;DHT22;3996;49.674;10.716;2024-02-28T13:42:17;12.50;6.90
7902;DHT22;3996;49.674;10.716;2024-02-28T13:44:45;12.60;7.30
7902;DHT22;3996;49.674;10.716;2024-02-28T13:47:12;12.50;6.80
7902;DHT22;3996;49.674;10.716;2024-02-28T13:49:39;12.40;6.30
7902;DHT22;3996;49.674;10.716;2024-02-28T13:52:05;12.40;6.60
7902;DHT22;3996;49.674;10.716;2024-02-28T13:54:31;12.00;4.80
7902;DHT22;3996;49.674;10.716;2024-02-28T13:56:57;11.70;7.00
7902;DHT22;3996;49.674;10.716;2024-02-28T13:59:23;11.70;6.40
7902;DHT22;3996;49.674;10.716;2024-02-28T14:01:49;11.70;5.90
7902;DHT22;3996;49.674;10.716;2024-02-28T14:04:15;11.50;5.80
7902;DHT22;3996;49.674;10.716;2024-02-28T14:06:40;11.30;6.30
7902;DHT22;3996;49.674;10.716;2024-02-28T14:09:06;11.50;6.50
7902;DHT22;3996;49.674;10.716;2024-02-28T14:11:32;11.70;7.20
7902;DHT22;3996;49.674;10.716;2024-02-28T14:13:57;11.70;7.40
7902;DHT22;3996;49.674;10.716;2024-02-28T14:16:24;12.00;7.80
7902;DHT22;3996;49.674;10.716;2024-02-28T14:18:50;12.30;6.90
7902;DHT22;3996;49.674;10.716;2024-02-28T14:21:16;12.30;6.30
7902;DHT22;3996;49.674;10.716;2024-02-28T14:23:42;12.10;5.60
7902;DHT22;3996;49.674;10.716;2024-02-28T14:26:08;11.90;5.80
7902;DHT22;3996;49.674;10.716;2024-02-28T14:28:34;11.50;6.80
7902;DHT22;3996;49.674;10.716;2024-02-28T14:30:59;11.40;7.10
7902;DHT22;3996;49.674;10.716;2024-02-28T14:33:25;11.60;7.40
7902;DHT22;3996;49.674;10.716;2024-02-28T14:35:51;11.40;6.60
7902;DHT22;3996;49.674;10.716;2024-02-28T14:38:17;11.30;7.40
7902;DHT22;3996;49.674;10.716;2024-02-28T14:40:43;11.40;7.00
7902;DHT22;3996;49.674;10.716;2024-02-28T14:43:08;11.60;7.80
7902;DHT22;3996;49.674;10.716;2024-02-28T14:45:34;11.60;7.70
7902;DHT22;3996;49.674;10.716;2024-02-28T14:48:00;11.60;5.70
7902;DHT22;3996;49.674;10.716;2024-02-28T14:50:26;11.30;5.80
7902;DHT22;3996;49.674;10.716;2024-02-28T14:52:51;11.40;5.80
7902;DHT22;3996;49.674;10.716;2024-02-28T14:55:17;11.50;6.00
7902;DHT22;3996;49.674;10.716;2024-02-28T14:57:43;11.40;5.70
7902;DHT22;3996;49.674;10.716;2024-02-28T15:00:10;11.30;6.10
7902;DHT22;3996;49.674;10.716;2024-02-28T15:02:42;11.20;5.90
7902;DHT22;3996;49.674;10.716;2024-02-28T15:05:08;11.20;5.90
7902;DHT22;3996;49.674;10.716;2024-02-28T15:07:35;11.10;6.40
7902;DHT22;3996;49.674;10.716;2024-02-28T15:10:04;11.00;6.30
7902;DHT22;3996;49.674;10.716;2024-02-28T15:12:31;10.90;6.20
7902;DHT22;3996;49.674;10.716;2024-02-28T15:15:01;10.80;9.30
7902;DHT22;3996;49.674;10.716;2024-02-28T15:17:33;10.60;9.70
7902;DHT22;3996;49.674;10.716;2024-02-28T15:20:00;10.60;10.30
7902;DHT22;3996;49.674;10.716;2024-02-28T15:22:28;10.60;11.10
7902;DHT22;3996;49.674;10.716;2024-02-28T15:24:55;10.60;11.00
7902;DHT22;3996;49.674;10.716;2024-02-28T15:27:20;10.50;12.10
7902;DHT22;3996;49.674;10.716;2024-02-28T15:29:46;10.40;11.70
7902;DHT22;3996;49.674;10.716;2024-02-28T15:32:12;10.30;12.50
7902;DHT22;3996;49.674;10.716;2024-02-28T15:34:38;10.40;12.60
7902;DHT22;3996;49.674;10.716;2024-02-28T15:37:04;10.30;12.80
7902;DHT22;3996;49.674;10.716;2024-02-28T15:39:30;10.20;12.60
7902;DHT22;3996;49.674;10.716;2024-02-28T15:41:56;10.20;12.40
7902;DHT22;3996;49.674;10.716;2024-02-28T15:44:21;10.10;12.90
7902;DHT22;3996;49.674;10.716;2024-02-28T15:46:47;10.10;13.00
7902;DHT22;3996;49.674;10.716;2024-02-28T15:49:13;10.00;13.00
7902;DHT22;3996;49.674;10.716;2024-02-28T15:51:39;10.00;13.10
7902;DHT22;3996;49.674;10.716;2024-02-28T15:54:04;10.00;13.70